sensor_id;sensor_type;location;lat;lon;timestamp;temperature;humidity
921;DHT22;447;51.332;6.778;2024-02-15T00:00:03;12.30;99.90
921;DHT22;447;51.332;6.778;2024-02-15T00:02:30;12.30;99.90
921;DHT22;447;51.332;6.778;2024-02-15T00:04:56;12.30;99.90
921;DHT22;447;51.332;6.778;2024-02-15T00:07:24;12.30;99.90
921;DHT22;447;51.332;6.778;2024-02-15T00:09:53;12.30;99.90
921;DHT22;447;51.332;6.778;2024-02-15T00:12:22;12.30;99.90
921;DHT22;447;51.332;6.778;2024-02-15T00:14:56;12.30;99.90
921;DHT22;447;51.332;6.778;2024-02-15T00:17:25;12.30;99.90
921;DHT22;447;51.332;6.778;2024-02-15T00:19:53;12.30;99.90
921;DHT22;447;51.332;6.778;2024-02-15T00:22:19;12.30;99.90
921;DHT22;447;51.332;6.778;2024-02-15T00:24:48;12.30;99.90
921;DHT22;447;51.332;6.778;2024-02-15T00:27:17;12.30;99.90
921;DHT22;447;51.332;6.778;2024-02-15T00:29:44;12.30;99.90
921;DHT22;447;51.332;6.778;2024-02-15T00:32:10;12.30;99.90
921;DHT22;447;51.332;6.778;2024-02-15T00:34:36;12.40;99.90
921;DHT22;447;51.332;6.778;2024-02-15T00:37:05;12.40;99.90
921;DHT22;447;51.332;6.778;2024-02-15T00:39:34;12.30;99.90
921;DHT22;447;51.332;6.778;2024-02-15T00:42:05;12.40;99.90
921;DHT22;447;51.332;6.778;2024-02-15T00:44:40;12.40;99.90
921;DHT22;447;51.332;6.778;2024-02-15T00:47:11;12.40;99.90
921;DHT22;447;51.332;6.778;2024-02-15T00:49:38;12.30;99.90
921;DHT22;447;51.332;6.778;2024-02-15T00:52:05;12.30;99.90
921;DHT22;447;51.332;6.778;2024-02-15T00:54:31;12.40;99.90
921;DHT22;447;51.332;6.778;2024-02-15T00:56:57;12.40;99.90
921;DHT22;447;51.332;6.778;2024-02-15T00:59:25;12.40;99.90
921;DHT22;447;51.332;6.778;2024-02-15T01:01:54;12.40;99.90
921;DHT22;447;51.332;6.778;2024-02-15T01:04:20;12.40;99.90
921;DHT22;447;51.332;6.778;2024-02-15T01:06:48;12.40;99.90
921;DHT22;447;51.332;6.778;2024-02-15T01:09:14;12.40;99.90
921;DHT22;447;51.332;6.778;2024-02-15T01:11:40;12.30;99.90
921;DHT22;447;51.332;6.778;2024-02-15T01:14:11;12.40;99.90
921;DHT22;447;51.332;6.778;2024-02-15T01:16:37;12.40;99.90
921;DHT22;447;51.332;6.778;2024-02-15T01:19:03;12.40;99.90
921;DHT22;447;51.332;6.778;2024-02-15T01:21:32;12.40;99.90
921;DHT22;447;51.332;6.778;2024-02-15T01:24:03;12.30;99.90
921;DHT22;447;51.332;6.778;2024-02-15T01:26:32;12.40;99.90
921;DHT22;447;51.332;6.778;2024-02-15T01:29:01;12.30;99.90
921;DHT22;447;51.332;6.778;2024-02-15T01:31:29;12.40;99.90
921;DHT22;447;51.332;6.778;2024-02-15T01:33:57;12.40;99.90
921;DHT22;447;51.332;6.778;2024-02-15T01:36:25;12.30;99.90
921;DHT22;447;51.332;6.778;2024-02-15T01:38:52;12.40;99.90
921;DHT22;447;51.332;6.778;2024-02-15T01:41:20;12.40;99.90
921;DHT22;447;51.332;6.778;2024-02-15T01:43:46;12.30;99.90
921;DHT22;447;51.332;6.778;2024-02-15T01:46:14;12.40;99.90
921;DHT22;447;51.332;6.778;2024-02-15T01:48:43;12.30;99.90
921;DHT22;447;51.332;6.778;2024-02-15T01:51:14;12.40;99.90
921;DHT22;447;51.332;6.778;2024-02-15T01:53:47;12.40;99.90
921;DHT22;447;51.332;6.778;2024-02-15T01:56:16;12.30;99.90
921;DHT22;447;51.332;6.778;2024-02-15T01:58:43;12.30;99.90
921;DHT22;447;51.332;6.778;2024-02-15T02:01:14;12.30;99.90
921;DHT22;447;51.332;6.778;2024-02-15T02:03:40;12.40;99.90
921;DHT22;447;51.332;6.778;2024-02-15T02:06:10;12.30;99.90
921;DHT22;447;51.332;6.778;2024-02-15T02:08:36;12.40;99.90
921;DHT22;447;51.332;6.778;2024-02-15T02:11:04;12.30;99.90
921;DHT22;447;51.332;6.778;2024-02-15T02:13:31;12.40;99.90
921;DHT22;447;51.332;6.778;2024-02-15T02:15:57;12.30;99.90
921;DHT22;447;51.332;6.778;2024-02-15T02:18:28;12.30;99.90
921;DHT22;447;51.332;6.778;2024-02-15T02:20:57;12.30;99.90
921;DHT22;447;51.332;6.778;2024-02-15T02:23:29;12.40;99.90
921;DHT22;447;51.332;6.778;2024-02-15T02:25:57;12.40;99.90
921;DHT22;447;51.332;6.778;2024-02-15T02:28:24;12.40;99.90
921;DHT22;447;51.332;6.778;2024-02-15T02:30:52;12.40;99.90
921;DHT22;447;51.332;6.778;2024-02-15T02:33:18;12.30;99.90
921;DHT22;447;51.332;6.778;2024-02-15T02:35:47;12.30;99.90
921;DHT22;447;51.332;6.778;2024-02-15T02:38:18;12.40;99.90
921;DHT22;447;51.332;6.778;2024-02-15T02:40:44;12.30;99.90
921;DHT22;447;51.332;6.778;2024-02-15T02:43:10;12.40;99.90
921;DHT22;447;51.332;6.778;2024-02-15T02:45:37;12.40;99.90
921;DHT22;447;51.332;6.778;2024-02-15T02:48:03;12.30;99.90
921;DHT22;447;51.332;6.778;2024-02-15T02:50:32;12.30;99.90
921;DHT22;447;51.332;6.778;2024-02-15T02:52:58;12.30;99.90
921;DHT22;447;51.332;6.778;2024-02-15T02:55:25;12.30;99.90
921;DHT22;447;51.332;6.778;2024-02-15T02:57:55;12.40;99.90
921;DHT22;447;51.332;6.778;2024-02-15T03:00:23;12.40;99.90
921;DHT22;447;51.332;6.778;2024-02-15T03:02:51;12.40;99.90
921;DHT22;447;51.332;6.778;2024-02-15T03:05:18;12.30;99.90
921;DHT22;447;51.332;6.778;2024-02-15T03:07:46;12.30;99.90
921;DHT22;447;51.332;6.778;2024-02-15T03:10:12;12.30;99.90
921;DHT22;447;51.332;6.778;2024-02-15T03:12:41;12.40;99.90
921;DHT22;447;51.332;6.778;2024-02-15T03:15:13;12.40;99.90
921;DHT22;447;51.332;6.778;2024-02-15T03:17:41;12.30;99.90
921;DHT22;447;51.332;6.778;2024-02-15T03:20:09;12.30;99.90
921;DHT22;447;51.332;6.778;2024-02-15T03:22:58;12.40;99.90
921;DHT22;447;51.332;6.778;2024-02-15T03:25:25;12.40;99.90
921;DHT22;447;51.332;6.778;2024-02-15T03:27:58;12.40;99.90
921;DHT22;447;51.332;6.778;2024-02-15T03:30:30;12.30;99.90
921;DHT22;447;51.332;6.778;2024-02-15T03:32:59;12.40;99.90
921;DHT22;447;51.332;6.778;2024-02-15T03:35:28;12.30;99.90
921;DHT22;447;51.332;6.778;2024-02-15T03:37:57;12.40;99.90
921;DHT22;447;51.332;6.778;2024-02-15T03:40:24;12.40;99.90
921;DHT22;447;51.332;6.778;2024-02-15T03:42:55;12.40;99.90
921;DHT22;447;51.332;6.778;2024-02-15T03:45:22;12.30;99.90
921;DHT22;447;51.332;6.778;2024-02-15T03:47:51;12.40;99.90
921;DHT22;447;51.332;6.778;2024-02-15T03:50:18;12.40;99.90
921;DHT22;447;51.332;6.778;2024-02-15T03:52:48;12.40;99.90
921;DHT22;447;51.332;6.778;2024-02-15T03:55:18;12.40;99.90
921;DHT22;447;51.332;6.778;2024-02-15T03:57:45;12.30;99.90
921;DHT22;447;51.332;6.778;2024-02-15T04:00:16;12.40;99.90
921;DHT22;447;51.332;6.778;2024-02-15T04:02:46;12.40;99.90
921;DHT22;447;51.332;6.778;2024-02-15T04:05:15;12.40;99.90
921;DHT22;447;51.332;6.778;2024-02-15T04:07:47;12.40;99.90
921;DHT22;447;51.332;6.778;2024-02-15T04:10:13;12.30;99.90
921;DHT22;447;51.332;6.778;2024-02-15T04:12:49;12.40;99.90
921;DHT22;447;51.332;6.778;2024-02-15T04:15:18;12.40;99.90
921;DHT22;447;51.332;6.778;2024-02-15T04:17:44;12.40;99.90
921;DHT22;447;51.332;6.778;2024-02-15T04:20:10;12.40;99.90
921;DHT22;447;51.332;6.778;2024-02-15T04:22:41;12.40;99.90
921;DHT22;447;51.332;6.778;2024-02-15T04:25:09;12.40;99.90
921;DHT22;447;51.332;6.778;2024-02-15T04:27:44;12.40;99.90
921;DHT22;447;51.332;6.778;2024-02-15T04:30:13;12.40;99.90
921;DHT22;447;51.332;6.778;2024-02-15T04:32:41;12.40;99.90
921;DHT22;447;51.332;6.778;2024-02-15T04:35:07;12.40;99.90
921;DHT22;447;51.332;6.778;2024-02-15T04:37:36;12.40;99.90
921;DHT22;447;51.332;6.778;2024-02-15T04:40:03;12.40;99.90
921;DHT22;447;51.332;6.778;2024-02-15T04:42:36;12.40;99.90
921;DHT22;447;51.332;6.778;2024-02-15T04:45:06;12.40;99.90
921;DHT22;447;51.332;6.778;2024-02-15T04:47:53;12.40;99.90
921;DHT22;447;51.332;6.778;2024-02-15T04:50:22;12.40;99.90
921;DHT22;447;51.332;6.778;2024-02-15T04:52:49;12.40;99.90
921;DHT22;447;51.332;6.778;2024-02-15T04:55:18;12.40;99.90
921;DHT22;447;51.332;6.778;2024-02-15T04:57:46;12.40;99.90
921;DHT22;447;51.332;6.778;2024-02-15T05:00:15;12.40;99.90
921;DHT22;447;51.332;6.778;2024-02-15T05:02:43;12.40;99.90
921;DHT22;447;51.332;6.778;2024-02-15T05:05:12;12.40;99.90
921;DHT22;447;51.332;6.778;2024-02-15T05:07:41;12.40;99.90
921;DHT22;447;51.332;6.778;2024-02-15T05:10:13;12.40;99.90
921;DHT22;447;51.332;6.778;2024-02-15T05:12:42;12.40;99.90
921;DHT22;447;51.332;6.778;2024-02-15T05:15:11;12.40;99.90
921;DHT22;447;51.332;6.778;2024-02-15T05:17:40;12.40;99.90
921;DHT22;447;51.332;6.778;2024-02-15T05:20:10;12.40;99.90
921;DHT22;447;51.332;6.778;2024-02-15T05:22:40;12.40;99.90
921;DHT22;447;51.332;6.778;2024-02-15T05:25:09;12.40;99.90
921;DHT22;447;51.332;6.778;2024-02-15T05:27:35;12.40;99.90
921;DHT22;447;51.332;6.778;2024-02-15T05:30:07;12.40;99.90
921;DHT22;447;51.332;6.778;2024-02-15T05:32:34;12.40;99.90
921;DHT22;447;51.332;6.778;2024-02-15T05:35:09;12.40;99.90
921;DHT22;447;51.332;6.778;2024-02-15T05:37:39;12.40;99.90
921;DHT22;447;51.332;6.778;2024-02-15T05:40:08;12.40;99.90
921;DHT22;447;51.332;6.778;2024-02-15T05:42:43;12.40;99.90
921;DHT22;447;51.332;6.778;2024-02-15T05:47:55;12.40;99.90
921;DHT22;447;51.332;6.778;2024-02-15T05:50:25;12.40;99.90
921;DHT22;447;51.332;6.778;2024-02-15T05:52:55;12.40;99.90
921;DHT22;447;51.332;6.778;2024-02-15T05:55:25;12.40;99.90
921;DHT22;447;51.332;6.778;2024-02-15T05:57:52;12.40;99.90
921;DHT22;447;51.332;6.778;2024-02-15T06:00:21;12.40;99.90
921;DHT22;447;51.332;6.778;2024-02-15T06:02:47;12.40;99.90
921;DHT22;447;51.332;6.778;2024-02-15T06:05:15;12.40;99.90
921;DHT22;447;51.332;6.778;2024-02-15T06:07:43;12.40;99.90
921;DHT22;447;51.332;6.778;2024-02-15T06:10:09;12.40;99.90
921;DHT22;447;51.332;6.778;2024-02-15T06:12:35;12.40;99.90
921;DHT22;447;51.332;6.778;2024-02-15T06:15:04;12.40;99.90
921;DHT22;447;51.332;6.778;2024-02-15T06:17:33;12.40;99.90
921;DHT22;447;51.332;6.778;2024-02-15T06:20:02;12.40;99.90
921;DHT22;447;51.332;6.778;2024-02-15T06:22:30;12.40;99.90
921;DHT22;447;51.332;6.778;2024-02-15T06:24:56;12.40;99.90
921;DHT22;447;51.332;6.778;2024-02-15T06:27:23;12.40;99.90
921;DHT22;447;51.332;6.778;2024-02-15T06:29:50;12.40;99.90
921;DHT22;447;51.332;6.778;2024-02-15T06:32:35;12.40;99.90
921;DHT22;447;51.332;6.778;2024-02-15T06:35:20;12.40;99.90
921;DHT22;447;51.332;6.778;2024-02-15T06:38:04;12.40;99.90
921;DHT22;447;51.332;6.778;2024-02-15T06:40:49;12.40;99.90
921;DHT22;447;51.332;6.778;2024-02-15T06:43:15;12.40;99.90
921;DHT22;447;51.332;6.778;2024-02-15T06:45:44;12.40;99.90
921;DHT22;447;51.332;6.778;2024-02-15T06:48:13;12.40;99.90
921;DHT22;447;51.332;6.778;2024-02-15T06:50:39;12.40;99.90
921;DHT22;447;51.332;6.778;2024-02-15T06:53:05;12.40;99.90
921;DHT22;447;51.332;6.778;2024-02-15T06:55:32;12.40;99.90
921;DHT22;447;51.332;6.778;2024-02-15T06:57:59;12.40;99.90
921;DHT22;447;51.332;6.778;2024-02-15T07:00:25;12.40;99.90
921;DHT22;447;51.332;6.778;2024-02-15T07:02:51;12.40;99.90
921;DHT22;447;51.332;6.778;2024-02-15T07:05:21;12.40;99.90
921;DHT22;447;51.332;6.778;2024-02-15T07:07:49;12.40;99.90
921;DHT22;447;51.332;6.778;2024-02-15T07:10:18;12.40;99.90
921;DHT22;447;51.332;6.778;2024-02-15T07:12:44;12.40;99.90
921;DHT22;447;51.332;6.778;2024-02-15T07:15:13;12.40;99.90
921;DHT22;447;51.332;6.778;2024-02-15T07:17:43;12.40;99.90
921;DHT22;447;51.332;6.778;2024-02-15T07:20:12;12.40;99.90
921;DHT22;447;51.332;6.778;2024-02-15T07:22:46;12.40;99.90
921;DHT22;447;51.332;6.778;2024-02-15T07:25:13;12.40;99.90
921;DHT22;447;51.332;6.778;2024-02-15T07:27:40;12.40;99.90
921;DHT22;447;51.332;6.778;2024-02-15T07:30:07;12.40;99.90
921;DHT22;447;51.332;6.778;2024-02-15T07:32:34;12.40;99.90
921;DHT22;447;51.332;6.778;2024-02-15T07:35:04;12.40;99.90
921;DHT22;447;51.332;6.778;2024-02-15T07:37:34;12.40;99.90
921;DHT22;447;51.332;6.778;2024-02-15T07:40:00;12.40;99.90
921;DHT22;447;51.332;6.778;2024-02-15T07:42:28;12.40;99.90
921;DHT22;447;51.332;6.778;2024-02-15T07:44:57;12.40;99.90
921;DHT22;447;51.332;6.778;2024-02-15T07:47:29;12.40;99.90
921;DHT22;447;51.332;6.778;2024-02-15T07:49:59;12.40;99.90
921;DHT22;447;51.332;6.778;2024-02-15T07:52:30;12.50;99.90
921;DHT22;447;51.332;6.778;2024-02-15T07:54:56;12.40;99.90
921;DHT22;447;51.332;6.778;2024-02-15T07:57:22;12.40;99.90
921;DHT22;447;51.332;6.778;2024-02-15T07:59:48;12.40;99.90
921;DHT22;447;51.332;6.778;2024-02-15T08:02:15;12.40;99.90
921;DHT22;447;51.332;6.778;2024-02-15T08:04:52;12.40;99.90
921;DHT22;447;51.332;6.778;2024-02-15T08:07:20;12.40;99.90
921;DHT22;447;51.332;6.778;2024-02-15T08:09:47;12.40;99.90
921;DHT22;447;51.332;6.778;2024-02-15T08:12:16;12.40;99.90
921;DHT22;447;51.332;6.778;2024-02-15T08:14:47;12.40;99.90
921;DHT22;447;51.332;6.778;2024-02-15T08:17:13;12.40;99.90
921;DHT22;447;51.332;6.778;2024-02-15T08:19:41;12.40;99.90
921;DHT22;447;51.332;6.778;2024-02-15T08:22:10;12.40;99.90
921;DHT22;447;51.332;6.778;2024-02-15T08:24:37;12.40;99.90
921;DHT22;447;51.332;6.778;2024-02-15T08:27:03;12.40;99.90
921;DHT22;447;51.332;6.778;2024-02-15T08:29:30;12.40;99.90
921;DHT22;447;51.332;6.778;2024-02-15T08:31:59;12.50;99.90
921;DHT22;447;51.332;6.778;2024-02-15T08:34:25;12.50;99.90
921;DHT22;447;51.332;6.778;2024-02-15T08:36:51;12.50;99.90
921;DHT22;447;51.332;6.778;2024-02-15T08:39:17;12.50;99.90
921;DHT22;447;51.332;6.778;2024-02-15T08:41:43;12.50;99.90
921;DHT22;447;51.332;6.778;2024-02-15T08:44:09;12.50;99.90
921;DHT22;447;51.332;6.778;2024-02-15T08:46:39;12.40;99.90
921;DHT22;447;51.332;6.778;2024-02-15T08:49:06;12.50;99.90
921;DHT22;447;51.332;6.778;2024-02-15T08:51:37;12.50;99.90
921;DHT22;447;51.332;6.778;2024-02-15T08:54:03;12.50;99.90
921;DHT22;447;51.332;6.778;2024-02-15T08:56:34;12.50;99.90
921;DHT22;447;51.332;6.778;2024-02-15T08:59:03;12.50;99.90
921;DHT22;447;51.332;6.778;2024-02-15T09:01:29;12.50;99.90
921;DHT22;447;51.332;6.778;2024-02-15T09:03:57;12.50;99.90
921;DHT22;447;51.332;6.778;2024-02-15T09:06:23;12.50;99.90
921;DHT22;447;51.332;6.778;2024-02-15T09:08:51;12.50;99.90
921;DHT22;447;51.332;6.778;2024-02-15T09:11:17;12.50;99.90
921;DHT22;447;51.332;6.778;2024-02-15T09:13:43;12.50;99.90
921;DHT22;447;51.332;6.778;2024-02-15T09:16:09;12.50;99.90
921;DHT22;447;51.332;6.778;2024-02-15T09:18:37;12.50;99.90
921;DHT22;447;51.332;6.778;2024-02-15T09:21:04;12.50;99.90
921;DHT22;447;51.332;6.778;2024-02-15T09:23:30;12.50;99.90
921;DHT22;447;51.332;6.778;2024-02-15T09:25:57;12.50;99.90
921;DHT22;447;51.332;6.778;2024-02-15T09:28:23;12.50;99.90
921;DHT22;447;51.332;6.778;2024-02-15T09:30:49;12.50;99.90
921;DHT22;447;51.332;6.778;2024-02-15T09:33:21;12.50;99.90
921;DHT22;447;51.332;6.778;2024-02-15T09:35:49;12.50;99.90
921;DHT22;447;51.332;6.778;2024-02-15T09:38:15;12.50;99.90
921;DHT22;447;51.332;6.778;2024-02-15T09:40:43;12.60;99.90
921;DHT22;447;51.332;6.778;2024-02-15T09:43:15;12.60;99.90
921;DHT22;447;51.332;6.778;2024-02-15T09:45:41;12.60;99.90
921;DHT22;447;51.332;6.778;2024-02-15T09:48:10;12.50;99.90
921;DHT22;447;51.332;6.778;2024-02-15T09:50:39;12.60;99.90
921;DHT22;447;51.332;6.778;2024-02-15T09:53:08;12.60;99.90
921;DHT22;447;51.332;6.778;2024-02-15T09:55:36;12.60;99.90
921;DHT22;447;51.332;6.778;2024-02-15T09:58:07;12.60;99.90
921;DHT22;447;51.332;6.778;2024-02-15T10:00:35;12.60;99.90
921;DHT22;447;51.332;6.778;2024-02-15T10:03:06;12.60;99.90
921;DHT22;447;51.332;6.778;2024-02-15T10:05:35;12.50;99.90
921;DHT22;447;51.332;6.778;2024-02-15T10:08:04;12.60;99.90
921;DHT22;447;51.332;6.778;2024-02-15T10:10:33;12.60;99.90
921;DHT22;447;51.332;6.778;2024-02-15T10:13:01;12.60;99.90
921;DHT22;447;51.332;6.778;2024-02-15T10:17:56;12.60;99.90
921;DHT22;447;51.332;6.778;2024-02-15T10:20:23;12.60;99.90
921;DHT22;447;51.332;6.778;2024-02-15T10:25:35;12.70;99.90
921;DHT22;447;51.332;6.778;2024-02-15T10:28:07;12.60;99.90
921;DHT22;447;51.332;6.778;2024-02-15T10:30:35;12.60;99.90
921;DHT22;447;51.332;6.778;2024-02-15T10:33:04;12.60;99.90
921;DHT22;447;51.332;6.778;2024-02-15T10:35:36;12.60;99.90
921;DHT22;447;51.332;6.778;2024-02-15T10:38:07;12.70;99.90
921;DHT22;447;51.332;6.778;2024-02-15T10:40:34;12.70;99.90
921;DHT22;447;51.332;6.778;2024-02-15T10:43:06;12.70;99.90
921;DHT22;447;51.332;6.778;2024-02-15T10:45:35;12.70;99.90
921;DHT22;447;51.332;6.778;2024-02-15T10:48:05;12.70;99.90
921;DHT22;447;51.332;6.778;2024-02-15T10:50:31;12.70;99.90
921;DHT22;447;51.332;6.778;2024-02-15T10:52:58;12.70;99.90
921;DHT22;447;51.332;6.778;2024-02-15T10:56:32;12.70;99.90
921;DHT22;447;51.332;6.778;2024-02-15T10:58:33;12.70;99.90
921;DHT22;447;51.332;6.778;2024-02-15T11:01:06;12.70;99.90
921;DHT22;447;51.332;6.778;2024-02-15T11:03:43;12.70;99.90
921;DHT22;447;51.332;6.778;2024-02-15T11:06:14;12.70;99.90
921;DHT22;447;51.332;6.778;2024-02-15T11:08:43;12.70;99.90
921;DHT22;447;51.332;6.778;2024-02-15T11:11:10;12.80;99.90
921;DHT22;447;51.332;6.778;2024-02-15T11:13:40;12.80;99.90
921;DHT22;447;51.332;6.778;2024-02-15T11:16:08;12.80;99.90
921;DHT22;447;51.332;6.778;2024-02-15T11:21:15;12.80;99.90
921;DHT22;447;51.332;6.778;2024-02-15T11:23:44;12.80;99.90
921;DHT22;447;51.332;6.778;2024-02-15T11:26:43;12.80;99.90
921;DHT22;447;51.332;6.778;2024-02-15T11:29:51;12.80;99.90
921;DHT22;447;51.332;6.778;2024-02-15T11:32:37;12.80;99.90
921;DHT22;447;51.332;6.778;2024-02-15T11:35:11;12.80;99.90
921;DHT22;447;51.332;6.778;2024-02-15T11:40:23;12.80;99.90
921;DHT22;447;51.332;6.778;2024-02-15T11:42:51;12.80;99.90
921;DHT22;447;51.332;6.778;2024-02-15T11:45:19;12.90;99.90
921;DHT22;447;51.332;6.778;2024-02-15T11:47:53;12.90;99.90
921;DHT22;447;51.332;6.778;2024-02-15T11:50:21;12.90;99.90
921;DHT22;447;51.332;6.778;2024-02-15T11:52:49;12.90;99.90
921;DHT22;447;51.332;6.778;2024-02-15T11:55:19;12.90;99.90
921;DHT22;447;51.332;6.778;2024-02-15T11:57:58;12.90;99.90
921;DHT22;447;51.332;6.778;2024-02-15T12:00:32;12.90;99.90
921;DHT22;447;51.332;6.778;2024-02-15T12:03:20;12.90;99.90
921;DHT22;447;51.332;6.778;2024-02-15T12:06:07;12.90;99.90
921;DHT22;447;51.332;6.778;2024-02-15T12:08:53;12.90;99.90
921;DHT22;447;51.332;6.778;2024-02-15T12:11:39;13.00;99.90
921;DHT22;447;51.332;6.778;2024-02-15T12:14:27;13.00;99.90
921;DHT22;447;51.332;6.778;2024-02-15T12:17:13;13.00;99.90
921;DHT22;447;51.332;6.778;2024-02-15T12:20:01;13.00;99.90
921;DHT22;447;51.332;6.778;2024-02-15T12:22:36;13.00;99.90
921;DHT22;447;51.332;6.778;2024-02-15T12:25:07;13.00;99.90
921;DHT22;447;51.332;6.778;2024-02-15T12:27:40;13.00;99.90
921;DHT22;447;51.332;6.778;2024-02-15T12:30:07;13.10;99.90
921;DHT22;447;51.332;6.778;2024-02-15T12:32:38;13.10;99.90
921;DHT22;447;51.332;6.778;2024-02-15T12:35:11;13.10;99.90
921;DHT22;447;51.332;6.778;2024-02-15T12:37:47;13.10;99.90
921;DHT22;447;51.332;6.778;2024-02-15T12:40:19;13.10;99.90
921;DHT22;447;51.332;6.778;2024-02-15T12:42:48;13.20;99.90
921;DHT22;447;51.332;6.778;2024-02-15T12:45:20;13.10;99.90
921;DHT22;447;51.332;6.778;2024-02-15T12:47:50;13.20;99.90
921;DHT22;447;51.332;6.778;2024-02-15T12:50:21;13.20;99.90
921;DHT22;447;51.332;6.778;2024-02-15T12:52:50;13.20;99.90
921;DHT22;447;51.332;6.778;2024-02-15T12:55:18;13.20;99.90
921;DHT22;447;51.332;6.778;2024-02-15T12:57:51;13.20;99.90
921;DHT22;447;51.332;6.778;2024-02-15T13:00:31;13.30;99.90
921;DHT22;447;51.332;6.778;2024-02-15T13:03:01;13.30;99.90
921;DHT22;447;51.332;6.778;2024-02-15T13:05:30;13.30;99.90
921;DHT22;447;51.332;6.778;2024-02-15T13:07:59;13.30;99.90
921;DHT22;447;51.332;6.778;2024-02-15T13:10:28;13.30;99.90
921;DHT22;447;51.332;6.778;2024-02-15T13:12:55;13.30;99.90
921;DHT22;447;51.332;6.778;2024-02-15T13:15:22;13.30;99.90
921;DHT22;447;51.332;6.778;2024-02-15T13:17:56;13.30;99.90
921;DHT22;447;51.332;6.778;2024-02-15T13:20:25;13.40;99.90
921;DHT22;447;51.332;6.778;2024-02-15T13:23:03;13.40;99.90
921;DHT22;447;51.332;6.778;2024-02-15T13:25:42;13.40;99.90
921;DHT22;447;51.332;6.778;2024-02-15T13:28:11;13.40;99.90
921;DHT22;447;51.332;6.778;2024-02-15T13:30:38;13.40;99.90
921;DHT22;447;51.332;6.778;2024-02-15T13:33:06;13.40;99.90
921;DHT22;447;51.332;6.778;2024-02-15T13:35:32;13.40;99.90
921;DHT22;447;51.332;6.778;2024-02-15T13:37:58;13.40;99.90
921;DHT22;447;51.332;6.778;2024-02-15T13:40:32;13.40;99.90
921;DHT22;447;51.332;6.778;2024-02-15T13:42:58;13.40;99.90
921;DHT22;447;51.332;6.778;2024-02-15T13:45:32;13.50;99.90
921;DHT22;447;51.332;6.778;2024-02-15T13:48:01;13.50;99.90
921;DHT22;447;51.332;6.778;2024-02-15T13:50:29;13.50;99.90
921;DHT22;447;51.332;6.778;2024-02-15T13:52:56;13.50;99.90
921;DHT22;447;51.332;6.778;2024-02-15T13:55:27;13.50;99.90
921;DHT22;447;51.332;6.778;2024-02-15T13:57:56;13.50;99.90
921;DHT22;447;51.332;6.778;2024-02-15T14:00:23;13.50;99.90
921;DHT22;447;51.332;6.778;2024-02-15T14:02:59;13.50;99.90
921;DHT22;447;51.332;6.778;2024-02-15T14:05:27;13.50;99.90
921;DHT22;447;51.332;6.778;2024-02-15T14:07:58;13.50;99.90
921;DHT22;447;51.332;6.778;2024-02-15T14:10:25;13.50;99.90
921;DHT22;447;51.332;6.778;2024-02-15T14:12:53;13.60;99.90
921;DHT22;447;51.332;6.778;2024-02-15T14:15:26;13.60;99.90
921;DHT22;447;51.332;6.778;2024-02-15T14:17:52;13.60;99.90
921;DHT22;447;51.332;6.778;2024-02-15T14:20:20;13.60;99.90
921;DHT22;447;51.332;6.778;2024-02-15T14:22:50;13.60;99.90
921;DHT22;447;51.332;6.778;2024-02-15T14:25:33;13.60;99.90
921;DHT22;447;51.332;6.778;2024-02-15T14:27:59;13.60;99.90
921;DHT22;447;51.332;6.778;2024-02-15T14:30:27;13.60;99.90
921;DHT22;447;51.332;6.778;2024-02-15T14:33:12;13.60;99.90
921;DHT22;447;51.332;6.778;2024-02-15T14:35:41;13.60;99.90
921;DHT22;447;51.332;6.778;2024-02-15T14:38:12;13.70;99.90
921;DHT22;447;51.332;6.778;2024-02-15T14:40:41;13.70;99.90
921;DHT22;447;51.332;6.778;2024-02-15T14:43:09;13.70;99.90
921;DHT22;447;51.332;6.778;2024-02-15T14:45:39;13.70;99.90
921;DHT22;447;51.332;6.778;2024-02-15T14:48:07;13.70;99.90
921;DHT22;447;51.332;6.778;2024-02-15T14:50:36;13.70;99.90
921;DHT22;447;51.332;6.778;2024-02-15T14:53:03;13.70;99.90
921;DHT22;447;51.332;6.778;2024-02-15T14:55:31;13.70;99.90
921;DHT22;447;51.332;6.778;2024-02-15T14:57:57;13.70;99.90
921;DHT22;447;51.332;6.778;2024-02-15T15:00:23;13.70;99.90
921;DHT22;447;51.332;6.778;2024-02-15T15:02:53;13.70;99.90
921;DHT22;447;51.332;6.778;2024-02-15T15:05:22;13.70;99.90
921;DHT22;447;51.332;6.778;2024-02-15T15:08:07;13.70;99.90
921;DHT22;447;51.332;6.778;2024-02-15T15:10:52;13.70;99.90
921;DHT22;447;51.332;6.778;2024-02-15T15:13:39;13.70;99.90
921;DHT22;447;51.332;6.778;2024-02-15T15:16:06;13.70;99.90
921;DHT22;447;51.332;6.778;2024-02-15T15:18:33;13.70;99.90
921;DHT22;447;51.332;6.778;2024-02-15T15:21:00;13.80;99.90
921;DHT22;447;51.332;6.778;2024-02-15T15:23:26;13.80;99.90
921;DHT22;447;51.332;6.778;2024-02-15T15:25:56;13.80;99.90
921;DHT22;447;51.332;6.778;2024-02-15T15:28:22;13.80;99.90
921;DHT22;447;51.332;6.778;2024-02-15T15:30:49;13.80;99.90
921;DHT22;447;51.332;6.778;2024-02-15T15:33:17;13.80;99.90
921;DHT22;447;51.332;6.778;2024-02-15T15:35:49;13.80;99.90
921;DHT22;447;51.332;6.778;2024-02-15T15:38:15;13.80;99.90
921;DHT22;447;51.332;6.778;2024-02-15T15:40:41;13.80;99.90
921;DHT22;447;51.332;6.778;2024-02-15T15:43:07;13.80;99.90
921;DHT22;447;51.332;6.778;2024-02-15T15:45:35;13.80;99.90
921;DHT22;447;51.332;6.778;2024-02-15T15:48:03;13.80;99.90
921;DHT22;447;51.332;6.778;2024-02-15T15:50:30;13.80;99.90
921;DHT22;447;51.332;6.778;2024-02-15T15:53:04;13.80;99.90
921;DHT22;447;51.332;6.778;2024-02-15T15:55:34;13.80;99.90
921;DHT22;447;51.332;6.778;2024-02-15T15:58:05;13.80;99.90
921;DHT22;447;51.332;6.778;2024-02-15T16:00:33;13.80;99.90
921;DHT22;447;51.332;6.778;2024-02-15T16:03:03;13.80;99.90
921;DHT22;447;51.332;6.778;2024-02-15T16:05:38;13.80;99.90
921;DHT22;447;51.332;6.778;2024-02-15T16:08:09;13.80;99.90
921;DHT22;447;51.332;6.778;2024-02-15T16:10:35;13.80;99.90
921;DHT22;447;51.332;6.778;2024-02-15T16:13:01;13.80;99.90
921;DHT22;447;51.332;6.778;2024-02-15T16:15:27;13.80;99.90
921;DHT22;447;51.332;6.778;2024-02-15T16:17:56;13.80;99.90
921;DHT22;447;51.332;6.778;2024-02-15T16:20:22;13.80;99.90
921;DHT22;447;51.332;6.778;2024-02-15T16:22:50;13.80;99.90
921;DHT22;447;51.332;6.778;2024-02-15T16:25:17;13.80;99.90
921;DHT22;447;51.332;6.778;2024-02-15T16:27:44;13.80;99.90
921;DHT22;447;51.332;6.778;2024-02-15T16:30:12;13.80;99.90
921;DHT22;447;51.332;6.778;2024-02-15T16:32:42;13.80;99.90
921;DHT22;447;51.332;6.778;2024-02-15T16:35:12;13.80;99.90
921;DHT22;447;51.332;6.778;2024-02-15T16:37:41;13.80;99.90
921;DHT22;447;51.332;6.778;2024-02-15T16:40:12;13.90;99.90
921;DHT22;447;51.332;6.778;2024-02-15T16:42:41;13.80;99.90
921;DHT22;447;51.332;6.778;2024-02-15T16:45:09;13.80;99.90
921;DHT22;447;51.332;6.778;2024-02-15T16:47:35;13.80;99.90
921;DHT22;447;51.332;6.778;2024-02-15T16:50:03;13.90;99.90
921;DHT22;447;51.332;6.778;2024-02-15T16:52:34;13.80;99.90
921;DHT22;447;51.332;6.778;2024-02-15T16:55:06;13.80;99.90
921;DHT22;447;51.332;6.778;2024-02-15T16:57:36;13.90;99.90
921;DHT22;447;51.332;6.778;2024-02-15T17:00:07;13.80;99.90
921;DHT22;447;51.332;6.778;2024-02-15T17:02:34;13.80;99.90